createdAt,value
2017-08-14T00:01:18.950Z,1.90
2017-08-14T00:03:46.478Z,1.60
2017-08-14T00:06:13.982Z,1.90
2017-08-14T00:08:41.504Z,2.13
2017-08-14T00:11:09.033Z,2.07
2017-08-14T00:13:36.545Z,1.70
2017-08-14T00:16:04.064Z,1.90
2017-08-14T00:18:31.573Z,1.93
2017-08-14T00:20:59.109Z,1.90
2017-08-14T00:23:26.622Z,1.70
2017-08-14T00:25:54.109Z,1.63
2017-08-14T00:28:21.638Z,1.80
2017-08-14T00:30:49.140Z,1.70
2017-08-14T00:33:16.680Z,6.77
2017-08-14T00:35:44.195Z,1.57
2017-08-14T00:38:11.712Z,2.20
2017-08-14T00:40:39.279Z,2.10
2017-08-14T00:43:06.811Z,1.97
2017-08-14T00:45:34.378Z,2.13
2017-08-14T00:48:01.904Z,1.90
2017-08-14T00:50:29.395Z,1.63
2017-08-14T00:52:56.944Z,2.00
2017-08-14T00:55:24.459Z,1.90
2017-08-14T00:57:51.954Z,1.83
2017-08-14T01:00:19.521Z,2.13
2017-08-14T01:02:47.015Z,1.73
2017-08-14T01:05:14.545Z,2.20
2017-08-14T01:07:42.125Z,2.30
2017-08-14T01:10:09.613Z,1.80
2017-08-14T01:12:37.162Z,1.90
2017-08-14T01:15:04.732Z,1.83
2017-08-14T01:17:32.227Z,1.60
2017-08-14T01:19:59.764Z,1.57
2017-08-14T01:22:27.261Z,2.03
2017-08-14T01:24:54.805Z,2.10
2017-08-14T01:27:22.303Z,1.97
2017-08-14T01:29:49.781Z,2.10
2017-08-14T01:32:17.665Z,3.73
2017-08-14T01:34:45.155Z,2.10
2017-08-14T01:37:12.659Z,2.20
2017-08-14T01:39:40.574Z,2.30
2017-08-14T01:42:08.063Z,2.03
2017-08-14T01:44:35.562Z,2.10
2017-08-14T01:47:03.126Z,2.13
2017-08-14T01:49:30.635Z,4.40
2017-08-14T01:51:58.162Z,1.97
2017-08-14T01:54:25.695Z,1.70
2017-08-14T01:56:53.278Z,2.33
2017-08-14T01:59:20.774Z,1.93
2017-08-14T02:01:48.287Z,1.70
2017-08-14T02:04:15.823Z,2.00
2017-08-14T02:06:43.327Z,2.23
2017-08-14T02:09:10.893Z,2.60
2017-08-14T02:11:38.406Z,2.30
2017-08-14T02:14:05.924Z,3.27
2017-08-14T02:16:33.474Z,2.10
2017-08-14T02:19:00.968Z,2.40
2017-08-14T02:21:28.493Z,3.17
2017-08-14T02:23:56.000Z,2.13
2017-08-14T02:26:23.514Z,3.00
2017-08-14T02:28:51.067Z,1.87
2017-08-14T02:31:18.635Z,1.90
2017-08-14T02:33:46.135Z,2.60
2017-08-14T02:36:14.306Z,2.20
2017-08-14T02:38:41.967Z,2.03
2017-08-14T02:41:09.464Z,2.50
2017-08-14T02:43:36.965Z,2.20
2017-08-14T02:46:04.488Z,3.83
2017-08-14T02:48:32.026Z,3.50
2017-08-14T02:50:59.557Z,2.20
2017-08-14T02:53:27.070Z,2.40
2017-08-14T02:55:54.612Z,2.40
2017-08-14T02:58:22.114Z,1.97
2017-08-14T03:00:49.658Z,2.60
2017-08-14T03:03:17.152Z,2.40
2017-08-14T03:05:44.680Z,2.83
2017-08-14T03:08:12.250Z,2.40
2017-08-14T03:10:39.759Z,2.03
2017-08-14T03:13:07.284Z,2.17
2017-08-14T03:15:34.803Z,2.43
2017-08-14T03:18:02.352Z,3.13
2017-08-14T03:20:29.899Z,3.47
2017-08-14T03:22:57.396Z,2.73
2017-08-14T03:25:24.973Z,2.77
2017-08-14T03:27:52.479Z,4.90
2017-08-14T03:30:19.977Z,4.90
2017-08-14T03:32:47.503Z,2.70
2017-08-14T03:35:15.027Z,2.80
2017-08-14T03:37:42.616Z,2.30
2017-08-14T03:40:10.111Z,2.17
2017-08-14T03:42:37.641Z,2.40
2017-08-14T03:45:05.252Z,15.63
2017-08-14T03:47:32.753Z,3.20
2017-08-14T03:50:00.252Z,2.40
2017-08-14T03:52:27.777Z,4.47
2017-08-14T03:54:55.281Z,5.17
2017-08-14T03:57:22.834Z,5.70
2017-08-14T03:59:50.356Z,7.83
2017-08-14T04:02:17.920Z,5.40
2017-08-14T04:04:45.446Z,7.03
2017-08-14T04:07:12.939Z,3.17
2017-08-14T04:09:40.455Z,2.60
2017-08-14T04:12:07.959Z,2.40
2017-08-14T04:14:35.538Z,2.70
2017-08-14T04:17:03.057Z,2.20
2017-08-14T04:19:30.633Z,2.60
2017-08-14T04:21:58.124Z,2.20
2017-08-14T04:24:25.624Z,2.60
2017-08-14T04:26:53.147Z,2.70
2017-08-14T04:29:20.661Z,3.67
2017-08-14T04:31:48.211Z,2.53
2017-08-14T04:34:15.753Z,2.70
2017-08-14T04:36:43.271Z,2.20
2017-08-14T04:39:10.770Z,2.93
2017-08-14T04:41:38.301Z,3.00
2017-08-14T04:44:05.832Z,2.77
2017-08-14T04:46:33.392Z,3.40
2017-08-14T04:49:00.875Z,4.03
2017-08-14T04:51:28.372Z,3.17
2017-08-14T04:53:55.903Z,2.40
2017-08-14T04:56:23.495Z,3.23
2017-08-14T04:58:51.434Z,3.40
2017-08-14T05:01:18.934Z,4.60
2017-08-14T05:03:46.588Z,2.47
2017-08-14T05:06:14.184Z,3.20
2017-08-14T05:08:42.044Z,2.57
2017-08-14T05:11:09.615Z,3.57
2017-08-14T05:13:37.123Z,3.03
2017-08-14T05:16:08.620Z,2.60
2017-08-14T05:18:36.132Z,2.70
2017-08-14T05:21:04.480Z,2.30
2017-08-14T05:23:32.027Z,21.03
2017-08-14T05:25:59.555Z,14.03
2017-08-14T05:28:27.066Z,5.00
2017-08-14T05:30:54.629Z,6.50
2017-08-14T05:33:22.189Z,5.57
2017-08-14T05:35:49.724Z,2.83
2017-08-14T05:38:17.934Z,3.00
2017-08-14T05:40:46.298Z,2.90
2017-08-14T05:43:13.798Z,3.37
2017-08-14T05:45:41.319Z,3.77
2017-08-14T05:48:08.925Z,4.10
2017-08-14T05:50:36.429Z,4.90
2017-08-14T05:53:03.932Z,3.50
2017-08-14T05:55:31.458Z,3.30
2017-08-14T05:57:58.942Z,3.77
2017-08-14T06:00:26.479Z,3.57
2017-08-14T06:02:54.067Z,3.17
2017-08-14T06:05:21.601Z,4.43
2017-08-14T06:07:49.153Z,3.73
2017-08-14T06:10:17.034Z,3.93
2017-08-14T06:12:44.543Z,6.60
2017-08-14T06:15:12.039Z,3.33
2017-08-14T06:17:39.613Z,3.00
2017-08-14T06:20:07.162Z,4.97
2017-08-14T06:22:35.033Z,3.20
2017-08-14T06:25:02.673Z,7.63
2017-08-14T06:27:30.225Z,2.90
2017-08-14T06:29:57.836Z,3.37
2017-08-14T06:32:25.372Z,3.50
2017-08-14T06:34:52.940Z,6.10
2017-08-14T06:37:20.456Z,3.90
2017-08-14T06:39:48.018Z,3.93
2017-08-14T06:42:16.497Z,5.83
2017-08-14T06:44:46.926Z,5.20
2017-08-14T06:47:15.246Z,5.00
2017-08-14T06:49:42.731Z,2.80
2017-08-14T06:52:10.272Z,3.30
2017-08-14T06:54:37.775Z,3.93
2017-08-14T06:57:06.188Z,3.67
2017-08-14T06:59:33.709Z,3.87
2017-08-14T07:02:01.571Z,5.33
2017-08-14T07:04:29.094Z,6.40
2017-08-14T07:06:56.605Z,3.50
2017-08-14T07:09:24.163Z,3.07
2017-08-14T07:11:51.712Z,3.00
2017-08-14T07:14:19.274Z,4.67
2017-08-14T07:16:46.758Z,3.23
2017-08-14T07:19:14.323Z,3.30
2017-08-14T07:21:41.844Z,5.57
2017-08-14T07:24:09.350Z,4.17
2017-08-14T07:26:36.892Z,5.03
2017-08-14T07:29:04.384Z,5.47
2017-08-14T07:31:31.931Z,6.93
2017-08-14T07:33:59.451Z,6.03
2017-08-14T07:36:27.045Z,3.43
2017-08-14T07:38:54.544Z,8.97
2017-08-14T07:41:22.068Z,10.20
2017-08-14T07:43:49.659Z,13.97
2017-08-14T07:46:17.169Z,3.63
2017-08-14T07:48:44.725Z,3.57
2017-08-14T07:51:12.239Z,3.20
2017-08-14T07:53:39.771Z,9.00
2017-08-14T07:56:07.267Z,8.93
2017-08-14T07:58:34.866Z,5.30
2017-08-14T08:01:02.404Z,9.43
2017-08-14T08:03:31.721Z,6.80
2017-08-14T08:05:59.270Z,17.87
2017-08-14T08:08:26.792Z,4.53
2017-08-14T08:10:54.362Z,7.77
2017-08-14T08:13:21.920Z,4.07
2017-08-14T08:15:49.459Z,4.20
2017-08-14T08:18:16.997Z,4.07
2017-08-14T08:20:45.627Z,4.10
2017-08-14T08:23:13.268Z,3.60
2017-08-14T08:25:40.806Z,6.43
2017-08-14T08:28:08.351Z,4.47
2017-08-14T08:30:35.923Z,4.60
2017-08-14T08:33:03.539Z,4.10
2017-08-14T08:35:31.031Z,5.00
2017-08-14T08:37:58.570Z,7.63
2017-08-14T08:40:26.092Z,5.27
2017-08-14T08:42:53.623Z,3.93
2017-08-14T08:45:21.503Z,3.73
2017-08-14T08:47:49.019Z,4.10
2017-08-14T08:50:16.542Z,4.00
2017-08-14T08:52:44.112Z,4.13
2017-08-14T08:55:11.639Z,3.90
2017-08-14T08:57:39.174Z,3.57
2017-08-14T09:00:06.681Z,4.17
2017-08-14T09:02:34.214Z,4.17
2017-08-14T09:05:02.058Z,3.73
2017-08-14T09:07:29.711Z,4.33
2017-08-14T09:09:57.228Z,4.60
2017-08-14T09:12:24.752Z,4.20
2017-08-14T09:14:52.309Z,4.20
2017-08-14T09:17:19.863Z,4.40
2017-08-14T09:19:47.422Z,6.10
2017-08-14T09:22:14.954Z,3.80
2017-08-14T09:24:43.486Z,3.93
2017-08-14T09:27:11.029Z,3.50
2017-08-14T09:29:38.557Z,3.90
2017-08-14T09:32:06.103Z,7.43
2017-08-14T09:34:33.645Z,3.80
2017-08-14T09:37:01.155Z,4.00
2017-08-14T09:39:28.688Z,6.10
2017-08-14T09:41:56.174Z,3.83
2017-08-14T09:44:23.719Z,3.50
2017-08-14T09:46:51.222Z,3.60
2017-08-14T09:49:19.126Z,3.63
2017-08-14T09:51:46.629Z,3.23
2017-08-14T09:54:14.744Z,6.63
2017-08-14T09:56:42.357Z,3.90
2017-08-14T09:59:09.898Z,3.00
2017-08-14T10:01:37.387Z,4.10
2017-08-14T10:04:04.890Z,6.90
2017-08-14T10:06:32.436Z,2.77
2017-08-14T10:08:59.992Z,7.60
2017-08-14T10:11:27.502Z,5.17
2017-08-14T10:13:55.008Z,5.83
2017-08-14T10:16:22.631Z,3.20
2017-08-14T10:18:50.133Z,7.70
2017-08-14T10:21:17.874Z,7.73
2017-08-14T10:23:45.434Z,3.67
2017-08-14T10:26:12.958Z,3.80
2017-08-14T10:28:40.489Z,2.73
2017-08-14T10:31:08.005Z,3.73
2017-08-14T10:33:35.512Z,2.93
2017-08-14T10:36:03.103Z,6.20
2017-08-14T10:38:30.621Z,7.37
2017-08-14T10:40:58.173Z,2.90
2017-08-14T10:43:25.720Z,2.80
2017-08-14T10:45:53.608Z,9.20
2017-08-14T10:48:21.145Z,5.73
2017-08-14T10:50:48.650Z,3.77
2017-08-14T10:53:16.227Z,7.70
2017-08-14T10:55:43.739Z,4.67
2017-08-14T10:58:11.341Z,3.47
2017-08-14T11:00:38.999Z,3.43
2017-08-14T11:03:06.533Z,8.27
2017-08-14T11:05:34.071Z,11.83
2017-08-14T11:08:01.653Z,4.50
2017-08-14T11:10:29.179Z,3.40
2017-08-14T11:12:56.729Z,3.17
2017-08-14T11:15:24.296Z,8.63
2017-08-14T11:17:51.815Z,8.23
2017-08-14T11:20:19.324Z,4.23
2017-08-14T11:22:46.902Z,3.50
2017-08-14T11:25:14.396Z,3.23
2017-08-14T11:27:41.939Z,24.70
2017-08-14T11:30:09.513Z,4.20
2017-08-14T11:32:37.008Z,7.00
2017-08-14T11:35:04.590Z,4.80
2017-08-14T11:37:32.189Z,4.13
2017-08-14T11:39:59.705Z,4.00
2017-08-14T11:42:27.234Z,6.90
2017-08-14T11:44:54.762Z,4.77
2017-08-14T11:47:22.290Z,4.47
2017-08-14T11:49:49.798Z,7.87
2017-08-14T11:52:17.351Z,9.47
2017-08-14T11:54:44.890Z,10.83
2017-08-14T11:57:12.439Z,3.97
2017-08-14T11:59:39.942Z,6.43
2017-08-14T12:02:07.486Z,4.80
2017-08-14T12:04:35.089Z,3.43
2017-08-14T12:07:02.622Z,5.73
2017-08-14T12:09:30.133Z,5.13
2017-08-14T12:11:57.742Z,4.80
2017-08-14T12:14:25.560Z,9.33
2017-08-14T12:16:53.089Z,5.90
2017-08-14T12:19:20.596Z,6.30
2017-08-14T12:21:48.155Z,3.57
2017-08-14T12:24:15.824Z,2.57
2017-08-14T12:26:43.452Z,5.47
2017-08-14T12:29:10.965Z,2.80
2017-08-14T12:31:38.483Z,2.87
2017-08-14T12:34:06.016Z,5.43
2017-08-14T12:36:33.547Z,1.83
2017-08-14T12:39:01.094Z,2.60
2017-08-14T12:41:28.640Z,2.30
2017-08-14T12:43:56.189Z,2.03
2017-08-14T12:46:23.724Z,8.93
2017-08-14T12:48:51.228Z,2.00
2017-08-14T12:51:18.826Z,18.60
2017-08-14T12:53:46.323Z,7.77
2017-08-14T12:56:13.844Z,10.07
2017-08-14T12:58:41.403Z,4.40
2017-08-14T13:01:08.958Z,9.30
2017-08-14T13:03:36.447Z,3.43
2017-08-14T13:06:04.020Z,7.80
2017-08-14T13:08:31.578Z,8.60
2017-08-14T13:10:59.070Z,12.37
2017-08-14T13:13:26.605Z,5.80
2017-08-14T13:15:54.090Z,13.67
2017-08-14T13:18:21.655Z,7.07
2017-08-14T13:20:49.188Z,4.97
2017-08-14T13:23:16.818Z,17.40
2017-08-14T13:25:44.325Z,11.07
2017-08-14T13:28:11.834Z,17.63
2017-08-14T13:30:39.370Z,31.30
2017-08-14T13:33:06.880Z,24.83
2017-08-14T13:35:34.404Z,35.80
2017-08-14T13:38:01.975Z,6.10
2017-08-14T13:40:29.504Z,8.03
2017-08-14T13:42:57.035Z,6.50
2017-08-14T13:45:24.535Z,5.07
2017-08-14T13:47:52.126Z,2.60
2017-08-14T13:50:19.654Z,3.53
2017-08-14T13:52:47.201Z,8.87
2017-08-14T13:55:15.064Z,2.30
2017-08-14T13:57:42.622Z,5.40
2017-08-14T14:00:10.165Z,7.70
2017-08-14T14:02:37.803Z,4.73
2017-08-14T14:05:05.540Z,5.87
2017-08-14T14:07:33.081Z,13.23
2017-08-14T14:10:00.589Z,5.17
2017-08-14T14:12:28.090Z,11.47
2017-08-14T14:14:55.644Z,2.87
2017-08-14T14:17:23.150Z,8.67
2017-08-14T14:19:50.695Z,7.47
2017-08-14T14:22:18.251Z,4.70
2017-08-14T14:24:45.743Z,6.20
2017-08-14T14:27:13.335Z,4.00
2017-08-14T14:29:40.847Z,6.97
2017-08-14T14:32:08.352Z,8.63
2017-08-14T14:34:35.904Z,6.90
2017-08-14T14:37:03.427Z,12.13
2017-08-14T14:39:30.932Z,7.47
2017-08-14T14:41:58.473Z,3.07
2017-08-14T14:44:25.987Z,3.00
2017-08-14T14:46:53.541Z,7.50
2017-08-14T14:49:21.083Z,12.10
2017-08-14T14:51:48.641Z,5.80
2017-08-14T14:54:16.131Z,2.33
2017-08-14T14:56:43.655Z,5.60
2017-08-14T14:59:11.176Z,7.50
2017-08-14T15:01:38.735Z,3.27
2017-08-14T15:04:06.249Z,6.33
2017-08-14T15:06:33.796Z,9.00
2017-08-14T15:09:01.368Z,2.10
2017-08-14T15:11:28.940Z,2.20
2017-08-14T15:13:56.490Z,1.67
2017-08-14T15:16:24.027Z,2.60
2017-08-14T15:18:51.547Z,2.93
2017-08-14T15:21:19.051Z,9.40
2017-08-14T15:23:46.600Z,2.17
2017-08-14T15:26:14.136Z,3.23
2017-08-14T15:28:41.687Z,2.63
2017-08-14T15:31:09.203Z,4.63
2017-08-14T15:33:36.793Z,5.27
2017-08-14T15:36:04.292Z,2.57
2017-08-14T15:38:31.796Z,5.53
2017-08-14T15:40:59.365Z,2.90
2017-08-14T15:43:26.906Z,9.20
2017-08-14T15:45:54.459Z,3.80
2017-08-14T15:48:22.025Z,10.13
2017-08-14T15:50:49.585Z,10.47
2017-08-14T15:53:17.411Z,9.73
2017-08-14T15:55:44.984Z,11.83
2017-08-14T15:58:12.543Z,7.23
2017-08-14T16:00:40.091Z,25.70
2017-08-14T16:03:07.581Z,7.67
2017-08-14T16:05:35.133Z,7.10
2017-08-14T16:08:02.701Z,4.93
2017-08-14T16:10:30.223Z,10.23
2017-08-14T16:12:57.753Z,7.63
2017-08-14T16:15:25.270Z,10.03
2017-08-14T16:17:53.459Z,5.80
2017-08-14T16:20:20.961Z,17.40
2017-08-14T16:22:48.461Z,13.33
2017-08-14T16:25:16.111Z,14.20
2017-08-14T16:27:43.619Z,13.33
2017-08-14T16:30:11.132Z,15.77
2017-08-14T16:32:38.693Z,15.00
2017-08-14T16:35:06.650Z,19.77
2017-08-14T16:37:34.187Z,15.60
2017-08-14T16:40:01.676Z,16.40
2017-08-14T16:42:29.214Z,12.23
2017-08-14T16:44:56.712Z,18.57
2017-08-14T16:47:24.258Z,13.10
2017-08-14T16:49:51.808Z,16.83
2017-08-14T16:52:19.341Z,6.50
2017-08-14T16:54:46.936Z,16.97
2017-08-14T16:57:14.525Z,7.50
2017-08-14T16:59:42.090Z,8.23
2017-08-14T17:02:09.614Z,8.73
2017-08-14T17:04:37.197Z,20.57
2017-08-14T17:07:04.744Z,10.37
2017-08-14T17:09:32.263Z,27.70
2017-08-14T17:11:59.814Z,16.17
2017-08-14T17:14:27.300Z,13.80
2017-08-14T17:16:54.842Z,8.50
2017-08-14T17:19:22.338Z,20.77
2017-08-14T17:21:49.833Z,18.73
2017-08-14T17:24:17.372Z,23.00
2017-08-14T17:26:44.944Z,11.13
2017-08-14T17:29:12.436Z,6.83
2017-08-14T17:31:39.997Z,7.70
2017-08-14T17:34:07.502Z,12.17
2017-08-14T17:36:35.038Z,21.60
2017-08-14T17:39:02.637Z,25.83
2017-08-14T17:41:30.151Z,28.77
2017-08-14T17:43:57.712Z,54.13
2017-08-14T17:46:25.267Z,15.33
2017-08-14T17:48:52.796Z,38.57
2017-08-14T17:51:20.359Z,65.80
2017-08-14T17:53:47.947Z,64.53
2017-08-14T17:56:16.682Z,29.00
2017-08-14T17:58:44.197Z,43.30
2017-08-14T18:01:11.843Z,64.60
2017-08-14T18:03:39.392Z,47.60
2017-08-14T18:06:06.900Z,40.27
2017-08-14T18:08:34.449Z,36.73
2017-08-14T18:11:01.965Z,20.03
2017-08-14T18:13:29.511Z,19.07
2017-08-14T18:15:57.060Z,14.50
2017-08-14T18:18:24.564Z,13.00
2017-08-14T18:20:52.107Z,31.63
2017-08-14T18:23:19.665Z,31.70
2017-08-14T18:25:47.179Z,41.07
2017-08-14T18:28:14.747Z,32.53
2017-08-14T18:30:42.240Z,31.03
2017-08-14T18:33:10.990Z,15.17
2017-08-14T18:35:38.549Z,15.10
2017-08-14T18:38:06.143Z,7.73
2017-08-14T18:40:33.666Z,7.70
2017-08-14T18:43:01.182Z,7.13
2017-08-14T18:45:28.790Z,19.50
2017-08-14T18:47:56.343Z,12.03
2017-08-14T18:50:24.791Z,8.63
2017-08-14T18:52:52.289Z,8.03
2017-08-14T18:55:19.811Z,7.80
2017-08-14T18:57:47.370Z,12.93
2017-08-14T19:00:14.946Z,19.40
2017-08-14T19:02:42.509Z,6.97
2017-08-14T19:05:10.095Z,10.87
2017-08-14T19:07:38.257Z,10.73
2017-08-14T19:10:05.306Z,11.23
2017-08-14T19:12:32.876Z,5.53
2017-08-14T19:15:00.443Z,6.40
2017-08-14T19:17:28.009Z,6.13
2017-08-14T19:19:55.568Z,6.97
2017-08-14T19:22:23.150Z,6.93
2017-08-14T19:24:50.652Z,10.30
2017-08-14T19:27:18.192Z,9.13
2017-08-14T19:29:46.776Z,9.90
2017-08-14T19:32:14.594Z,10.70
2017-08-14T19:34:42.243Z,8.30
2017-08-14T19:37:09.939Z,10.77
2017-08-14T19:39:37.615Z,7.73
2017-08-14T19:42:05.230Z,9.33
2017-08-14T19:44:32.931Z,14.53
2017-08-14T19:47:01.535Z,6.00
2017-08-14T19:49:30.158Z,17.13
2017-08-14T19:51:58.048Z,8.13
2017-08-14T19:54:25.825Z,11.10
2017-08-14T19:56:53.528Z,11.33
2017-08-14T19:59:21.235Z,8.50
2017-08-14T20:01:48.858Z,7.50
2017-08-14T20:04:16.470Z,5.70
2017-08-14T20:06:45.169Z,5.30
2017-08-14T20:09:12.877Z,5.37
2017-08-14T20:11:40.535Z,7.50
2017-08-14T20:14:08.241Z,7.30
2017-08-14T20:16:35.899Z,16.03
2017-08-14T20:19:03.468Z,12.80
2017-08-14T20:21:31.017Z,13.77
2017-08-14T20:23:58.530Z,12.87
2017-08-14T20:26:26.105Z,8.90
2017-08-14T20:28:53.652Z,10.77
2017-08-14T20:31:21.207Z,9.83
2017-08-14T20:33:48.741Z,11.93
2017-08-14T20:36:16.705Z,5.77
2017-08-14T20:38:44.203Z,7.63
2017-08-14T20:41:11.715Z,6.37
2017-08-14T20:43:39.280Z,10.50
2017-08-14T20:46:06.870Z,9.20
2017-08-14T20:48:34.415Z,7.60
2017-08-14T20:51:01.915Z,7.63
2017-08-14T20:53:29.452Z,12.60
2017-08-14T20:55:56.979Z,9.03
2017-08-14T20:58:24.577Z,7.70
2017-08-14T21:00:52.096Z,8.40
2017-08-14T21:03:19.632Z,6.73
2017-08-14T21:05:47.183Z,6.30
2017-08-14T21:08:14.734Z,9.17
2017-08-14T21:10:42.345Z,8.77
2017-08-14T21:13:09.861Z,7.17
2017-08-14T21:15:37.372Z,6.00
2017-08-14T21:18:04.917Z,6.40
2017-08-14T21:20:32.404Z,9.37
2017-08-14T21:22:59.940Z,10.80
2017-08-14T21:25:27.468Z,8.50
2017-08-14T21:27:54.982Z,6.77
2017-08-14T21:30:22.565Z,11.87
2017-08-14T21:32:50.088Z,8.13
2017-08-14T21:35:17.616Z,7.87
2017-08-14T21:37:45.180Z,10.10
2017-08-14T21:40:12.752Z,6.50
2017-08-14T21:42:40.245Z,8.20
2017-08-14T21:45:07.773Z,7.20
2017-08-14T21:47:35.341Z,7.60
2017-08-14T21:50:02.929Z,8.47
2017-08-14T21:52:30.476Z,9.20
2017-08-14T21:54:57.974Z,9.40
2017-08-14T21:57:25.537Z,12.97
2017-08-14T21:59:53.056Z,7.90
2017-08-14T22:02:20.608Z,11.57
2017-08-14T22:04:48.130Z,9.53
2017-08-14T22:07:16.250Z,6.67
2017-08-14T22:09:43.847Z,7.93
2017-08-14T22:12:11.368Z,9.73
2017-08-14T22:14:38.856Z,6.53
2017-08-14T22:17:06.921Z,7.17
2017-08-14T22:19:34.451Z,13.37
2017-08-14T22:22:02.006Z,10.03
2017-08-14T22:24:29.513Z,13.30
2017-08-14T22:26:57.934Z,7.57
2017-08-14T22:29:25.451Z,9.73
2017-08-14T22:31:53.698Z,7.30
2017-08-14T22:34:21.270Z,9.87
2017-08-14T22:36:48.769Z,17.03
2017-08-14T22:39:16.311Z,6.70
2017-08-14T22:41:43.841Z,6.30
2017-08-14T22:44:11.398Z,7.67
2017-08-14T22:46:38.931Z,8.80
2017-08-14T22:49:06.428Z,6.97
2017-08-14T22:51:33.968Z,10.20
2017-08-14T22:54:01.457Z,9.20
2017-08-14T22:56:29.003Z,7.57
2017-08-14T22:58:56.500Z,10.10
2017-08-14T23:01:24.075Z,19.27
2017-08-14T23:03:51.598Z,15.13
2017-08-14T23:06:19.098Z,12.00
2017-08-14T23:08:46.632Z,13.60
2017-08-14T23:11:14.116Z,12.70
2017-08-14T23:13:41.685Z,10.43
2017-08-14T23:16:09.186Z,8.77
2017-08-14T23:18:36.706Z,11.40
2017-08-14T23:21:04.253Z,16.10
2017-08-14T23:23:31.754Z,9.50
2017-08-14T23:25:59.272Z,9.60
2017-08-14T23:28:26.814Z,13.10
2017-08-14T23:30:54.334Z,17.07
2017-08-14T23:33:21.890Z,11.13
2017-08-14T23:35:49.435Z,14.00
2017-08-14T23:38:17.559Z,10.93
2017-08-14T23:40:45.106Z,15.43
2017-08-14T23:43:12.640Z,19.67
2017-08-14T23:45:40.242Z,16.67
2017-08-14T23:48:08.862Z,15.60
2017-08-14T23:50:36.364Z,16.63
2017-08-14T23:53:03.912Z,9.63
2017-08-14T23:55:31.432Z,13.23
2017-08-14T23:57:58.922Z,10.77
